Time;durP1;ratioP1;P1;durP2;ratioP2;P2;SDS_P1;SDS_P2;PMS_P1;PMS_P2;Temp;Humidity;BMP_temperature;BMP_pressure;BME280_temperature;BME280_humidity;BME280_pressure;Samples;Min_cycle;Max_cycle;Signal;HPM_P1;HPM_P2
2023/06/04 00:00:01;;;;;;;8.03;3.73;;;;;;;;;;5096470;28;20469;-75
2023/06/04 00:02:28;;;;;;;7.57;3.60;;;;;;;;;;5096706;28;20443;-74
2023/06/04 00:04:56;;;;;;;5.80;3.53;;;;;;;;;;5096720;28;20927;-74
2023/06/04 00:07:24;;;;;;;4.10;3.07;;;;;;;;;;5096603;28;20447;-74
2023/06/04 00:09:51;;;;;;;6.43;4.20;;;;;;;;;;5096240;28;20474;-74
2023/06/04 00:12:18;;;;;;;9.73;3.60;;;;;;;;;;5096510;28;20462;-74
2023/06/04 00:14:46;;;;;;;4.90;3.20;;;;;;;;;;5096747;28;20447;-74
2023/06/04 00:17:13;;;;;;;5.77;3.43;;;;;;;;;;5096201;28;20497;-75
2023/06/04 00:19:40;;;;;;;6.03;3.50;;;;;;;;;;5096232;28;20471;-74
2023/06/04 00:22:08;;;;;;;4.93;3.47;;;;;;;;;;5096387;28;20812;-74
2023/06/04 00:24:40;;;;;;;4.83;3.13;;;;;;;;;;5096362;28;20804;-74
2023/06/04 00:27:07;;;;;;;4.73;3.87;;;;;;;;;;5096151;28;20450;-75
2023/06/04 00:29:34;;;;;;;10.80;3.93;;;;;;;;;;5096102;28;20469;-74
2023/06/04 00:32:01;;;;;;;4.60;3.60;;;;;;;;;;5096111;28;20829;-74
2023/06/04 00:34:29;;;;;;;7.67;2.97;;;;;;;;;;5096369;28;20457;-73
2023/06/04 00:36:56;;;;;;;7.93;3.80;;;;;;;;;;5096270;28;20486;-73
2023/06/04 00:39:23;;;;;;;5.60;3.60;;;;;;;;;;5096064;28;20475;-73
2023/06/04 00:41:51;;;;;;;3.53;2.87;;;;;;;;;;5096038;28;20459;-73
2023/06/04 00:44:21;;;;;;;6.80;3.83;;;;;;;;;;5096039;28;20549;-73
2023/06/04 00:46:49;;;;;;;4.43;3.50;;;;;;;;;;5096155;28;20455;-72
2023/06/04 00:49:16;;;;;;;6.50;3.73;;;;;;;;;;5095418;28;20549;-73
2023/06/04 00:51:43;;;;;;;4.50;3.17;;;;;;;;;;5095899;28;20447;-73
2023/06/04 00:54:10;;;;;;;5.93;3.47;;;;;;;;;;5095771;28;20521;-73
2023/06/04 00:56:38;;;;;;;4.53;3.20;;;;;;;;;;5095814;28;21014;-73
2023/06/04 00:59:08;;;;;;;4.40;3.67;;;;;;;;;;5094482;28;20923;-73
2023/06/04 01:01:40;;;;;;;4.03;3.63;;;;;;;;;;5096211;28;20454;-73
2023/06/04 01:04:10;;;;;;;4.70;2.63;;;;;;;;;;5095826;28;20435;-73
2023/06/04 01:06:39;;;;;;;4.30;3.50;;;;;;;;;;5095855;28;20450;-73
2023/06/04 01:09:07;;;;;;;5.57;3.30;;;;;;;;;;5095217;28;20502;-73
2023/06/04 01:11:35;;;;;;;3.43;3.13;;;;;;;;;;5095489;28;20461;-73
2023/06/04 01:14:02;;;;;;;5.93;3.00;;;;;;;;;;5095231;28;20482;-72
2023/06/04 01:16:33;;;;;;;4.53;3.50;;;;;;;;;;5095480;28;20852;-73
2023/06/04 01:19:02;;;;;;;5.77;3.37;;;;;;;;;;5095076;28;20471;-73
2023/06/04 01:21:31;;;;;;;3.43;2.93;;;;;;;;;;5095325;28;20450;-73
2023/06/04 01:24:01;;;;;;;5.57;3.47;;;;;;;;;;5095328;28;20830;-73
2023/06/04 01:26:29;;;;;;;6.97;3.43;;;;;;;;;;5095340;28;20446;-73
2023/06/04 01:28:57;;;;;;;4.30;3.20;;;;;;;;;;5095095;28;20872;-73
2023/06/04 01:31:25;;;;;;;10.17;3.90;;;;;;;;;;5095354;28;20454;-73
2023/06/04 01:33:55;;;;;;;6.67;3.93;;;;;;;;;;5095226;28;20454;-73
2023/06/04 01:36:22;;;;;;;8.70;4.33;;;;;;;;;;5095057;28;20522;-73
2023/06/04 01:38:50;;;;;;;7.33;4.00;;;;;;;;;;5094864;28;20471;-73
2023/06/04 01:41:17;;;;;;;11.77;3.73;;;;;;;;;;5095310;28;20534;-73
2023/06/04 01:43:44;;;;;;;8.70;4.70;;;;;;;;;;5094735;28;20951;-73
2023/06/04 01:46:11;;;;;;;5.43;3.50;;;;;;;;;;5095045;28;20830;-73
2023/06/04 01:48:38;;;;;;;4.97;3.93;;;;;;;;;;5094466;28;20457;-73
2023/06/04 01:51:07;;;;;;;5.00;3.90;;;;;;;;;;5094952;28;20450;-73
2023/06/04 01:53:34;;;;;;;3.77;3.10;;;;;;;;;;5094443;28;20462;-73
2023/06/04 01:56:02;;;;;;;5.60;3.10;;;;;;;;;;5094509;28;20487;-73
2023/06/04 01:58:29;;;;;;;5.57;3.10;;;;;;;;;;5094645;28;20441;-73
2023/06/04 02:01:00;;;;;;;5.70;3.30;;;;;;;;;;5094498;28;20456;-73
2023/06/04 02:03:27;;;;;;;4.50;3.43;;;;;;;;;;5094727;28;20443;-73
2023/06/04 02:05:54;;;;;;;7.30;3.83;;;;;;;;;;5094385;28;20450;-73
2023/06/04 02:08:25;;;;;;;7.83;3.63;;;;;;;;;;5094565;28;20447;-72
2023/06/04 02:10:52;;;;;;;4.93;3.57;;;;;;;;;;5094254;28;20482;-73
2023/06/04 02:13:19;;;;;;;5.17;3.83;;;;;;;;;;5094300;28;20962;-73
2023/06/04 02:15:46;;;;;;;2.70;2.50;;;;;;;;;;5094411;28;20808;-73
2023/06/04 02:18:16;;;;;;;7.13;4.00;;;;;;;;;;5094117;28;20458;-73
2023/06/04 02:20:43;;;;;;;6.13;3.77;;;;;;;;;;5094556;28;20462;-73
2023/06/04 02:23:10;;;;;;;10.30;3.70;;;;;;;;;;5093986;28;20884;-76
2023/06/04 02:25:39;;;;;;;4.30;2.93;;;;;;;;;;5094244;28;20447;-76
2023/06/04 02:28:06;;;;;;;7.03;3.37;;;;;;;;;;5093971;28;20756;-76
2023/06/04 02:30:33;;;;;;;11.00;3.50;;;;;;;;;;5093640;28;20477;-76
2023/06/04 02:33:01;;;;;;;5.37;3.67;;;;;;;;;;5093803;28;20939;-76
2023/06/04 02:35:28;;;;;;;5.80;3.77;;;;;;;;;;5093976;28;20489;-76
2023/06/04 02:37:58;;;;;;;7.43;4.17;;;;;;;;;;5093832;28;20489;-76
2023/06/04 02:40:25;;;;;;;5.40;3.37;;;;;;;;;;5093542;28;20482;-76
2023/06/04 02:42:53;;;;;;;6.10;3.13;;;;;;;;;;5093835;28;20490;-76
2023/06/04 02:45:21;;;;;;;6.70;4.00;;;;;;;;;;5093514;28;20450;-76
2023/06/04 02:47:48;;;;;;;5.50;3.60;;;;;;;;;;5093242;28;20447;-76
2023/06/04 02:50:15;;;;;;;8.00;3.40;;;;;;;;;;5093384;28;20471;-76
2023/06/04 02:52:43;;;;;;;7.37;5.03;;;;;;;;;;5093531;28;20450;-76
2023/06/04 02:55:11;;;;;;;4.50;3.10;;;;;;;;;;5093438;28;20484;-76
2023/06/04 02:57:41;;;;;;;6.23;4.00;;;;;;;;;;5093399;28;20990;-76
2023/06/04 03:00:12;;;;;;;5.80;3.80;;;;;;;;;;5093194;28;20547;-76
2023/06/04 03:02:39;;;;;;;5.10;3.63;;;;;;;;;;5093570;28;20466;-76
2023/06/04 03:05:07;;;;;;;6.17;3.20;;;;;;;;;;5093224;28;20459;-76
2023/06/04 03:07:34;;;;;;;7.83;3.47;;;;;;;;;;5093491;28;20466;-76
2023/06/04 03:10:01;;;;;;;5.60;3.73;;;;;;;;;;5093028;28;20474;-76
2023/06/04 03:12:28;;;;;;;11.43;4.10;;;;;;;;;;5093266;28;20443;-76
2023/06/04 03:14:55;;;;;;;6.90;3.90;;;;;;;;;;5092767;28;20462;-76
2023/06/04 03:17:24;;;;;;;5.20;3.63;;;;;;;;;;5092433;28;20497;-76
2023/06/04 03:19:51;;;;;;;5.60;4.13;;;;;;;;;;5092554;28;20466;-76
2023/06/04 03:22:19;;;;;;;8.50;3.80;;;;;;;;;;5091960;28;20454;-76
2023/06/04 03:24:46;;;;;;;4.77;3.67;;;;;;;;;;5092518;28;20454;-75
2023/06/04 03:27:13;;;;;;;4.90;4.00;;;;;;;;;;5092409;28;20451;-76
2023/06/04 03:29:40;;;;;;;6.60;4.57;;;;;;;;;;5092064;28;20474;-75
2023/06/04 03:32:08;;;;;;;7.10;4.73;;;;;;;;;;5092262;28;20457;-76
2023/06/04 03:34:36;;;;;;;7.27;4.93;;;;;;;;;;5092437;28;20458;-76
2023/06/04 03:37:03;;;;;;;4.57;4.10;;;;;;;;;;5092213;28;20486;-76
2023/06/04 03:39:30;;;;;;;5.90;4.40;;;;;;;;;;5092293;28;20471;-76
2023/06/04 03:41:57;;;;;;;5.10;3.73;;;;;;;;;;5092358;28;20935;-75
2023/06/04 03:44:25;;;;;;;6.20;3.33;;;;;;;;;;5092375;28;20817;-76
2023/06/04 03:46:52;;;;;;;6.20;3.53;;;;;;;;;;5092475;28;20982;-76
2023/06/04 03:49:19;;;;;;;5.43;4.10;;;;;;;;;;5091795;28;20489;-76
2023/06/04 03:51:48;;;;;;;9.67;4.20;;;;;;;;;;5092246;28;20556;-76
2023/06/04 03:54:16;;;;;;;6.57;4.00;;;;;;;;;;5092068;28;20455;-76
2023/06/04 03:56:43;;;;;;;9.20;4.70;;;;;;;;;;5092133;28;20495;-76
2023/06/04 03:59:10;;;;;;;4.43;3.80;;;;;;;;;;5091877;28;20482;-76
2023/06/04 04:01:38;;;;;;;6.70;4.27;;;;;;;;;;5092294;28;20457;-77
2023/06/04 04:04:05;;;;;;;3.90;3.50;;;;;;;;;;5092107;28;20450;-76
2023/06/04 04:06:32;;;;;;;5.27;3.80;;;;;;;;;;5091931;28;20454;-76
2023/06/04 04:09:01;;;;;;;5.63;3.43;;;;;;;;;;5091863;28;20478;-76
2023/06/04 04:11:28;;;;;;;4.77;4.03;;;;;;;;;;5092052;28;20451;-76
2023/06/04 04:13:55;;;;;;;5.87;3.47;;;;;;;;;;5092173;28;20473;-76
2023/06/04 04:16:22;;;;;;;4.20;3.47;;;;;;;;;;5091942;28;20451;-76
2023/06/04 04:18:49;;;;;;;5.00;3.70;;;;;;;;;;5091847;28;20463;-76
2023/06/04 04:21:16;;;;;;;17.67;12.97;;;;;;;;;;5091978;28;20451;-76
2023/06/04 04:23:43;;;;;;;6.57;3.83;;;;;;;;;;5092041;28;20446;-76
2023/06/04 04:26:16;;;;;;;4.33;3.23;;;;;;;;;;5091833;28;20454;-77
2023/06/04 04:28:43;;;;;;;6.20;3.67;;;;;;;;;;5091898;28;20879;-77
2023/06/04 04:31:11;;;;;;;4.67;2.80;;;;;;;;;;5092270;28;20447;-77
2023/06/04 04:33:39;;;;;;;3.67;3.27;;;;;;;;;;5092151;28;20458;-77
2023/06/04 04:36:08;;;;;;;6.60;3.23;;;;;;;;;;5095472;28;20450;-77
2023/06/04 04:38:35;;;;;;;10.10;3.23;;;;;;;;;;5095105;28;20854;-76
2023/06/04 04:41:02;;;;;;;5.77;4.20;;;;;;;;;;5095294;28;20451;-76
2023/06/04 04:43:32;;;;;;;4.20;3.47;;;;;;;;;;5095514;28;20849;-77
2023/06/04 04:45:59;;;;;;;4.40;3.27;;;;;;;;;;5095226;28;20446;-76
2023/06/04 04:48:26;;;;;;;3.00;2.70;;;;;;;;;;5094547;28;20545;-77
2023/06/04 04:50:53;;;;;;;8.37;3.90;;;;;;;;;;5095043;28;20505;-76
2023/06/04 04:53:20;;;;;;;6.93;3.33;;;;;;;;;;5095227;28;20455;-76
2023/06/04 04:55:48;;;;;;;8.10;3.90;;;;;;;;;;5095123;28;20447;-77
2023/06/04 04:58:15;;;;;;;6.40;4.57;;;;;;;;;;5094711;28;20482;-76
2023/06/04 05:00:43;;;;;;;7.07;3.60;;;;;;;;;;5094976;28;20489;-77
2023/06/04 05:03:10;;;;;;;7.80;4.57;;;;;;;;;;5094911;28;20438;-77
2023/06/04 05:05:37;;;;;;;8.23;4.50;;;;;;;;;;5094871;28;20455;-76
2023/06/04 05:08:05;;;;;;;8.47;4.13;;;;;;;;;;5095037;28;20454;-76
2023/06/04 05:10:32;;;;;;;9.10;4.17;;;;;;;;;;5094635;28;20466;-77
2023/06/04 05:13:00;;;;;;;5.20;3.57;;;;;;;;;;5094829;28;20463;-77
2023/06/04 05:15:27;;;;;;;7.70;3.37;;;;;;;;;;5094558;28;20458;-76
2023/06/04 05:17:56;;;;;;;4.83;3.17;;;;;;;;;;5094696;28;20494;-76
2023/06/04 05:20:23;;;;;;;4.00;3.00;;;;;;;;;;5094453;28;20842;-77
2023/06/04 05:22:51;;;;;;;4.40;3.47;;;;;;;;;;5094712;28;20450;-76
2023/06/04 05:25:19;;;;;;;5.90;3.17;;;;;;;;;;5094485;28;20466;-77
2023/06/04 05:27:49;;;;;;;7.23;2.90;;;;;;;;;;5094525;28;20488;-76
2023/06/04 05:30:16;;;;;;;4.60;2.63;;;;;;;;;;5094188;28;20474;-76
2023/06/04 05:32:43;;;;;;;4.10;2.80;;;;;;;;;;5094541;28;20450;-77
2023/06/04 05:35:12;;;;;;;4.10;3.00;;;;;;;;;;5094211;28;20482;-76
2023/06/04 05:37:40;;;;;;;4.77;3.03;;;;;;;;;;5094258;28;20493;-77
2023/06/04 05:40:09;;;;;;;6.20;2.47;;;;;;;;;;5093833;28;20474;-76
2023/06/04 05:42:36;;;;;;;5.03;2.97;;;;;;;;;;5094010;28;20451;-76
2023/06/04 05:45:03;;;;;;;4.23;3.00;;;;;;;;;;5093610;28;20916;-76
2023/06/04 05:47:31;;;;;;;5.60;2.43;;;;;;;;;;5093468;28;20443;-77
2023/06/04 05:49:58;;;;;;;5.40;3.00;;;;;;;;;;5093777;28;20470;-77
2023/06/04 05:52:27;;;;;;;4.27;2.73;;;;;;;;;;5093950;28;20477;-76
2023/06/04 05:54:54;;;;;;;6.07;2.77;;;;;;;;;;5094050;28;20843;-77
2023/06/04 05:57:21;;;;;;;5.50;2.90;;;;;;;;;;5093445;28;20589;-76
2023/06/04 05:59:49;;;;;;;6.27;3.23;;;;;;;;;;5093622;28;20529;-77
2023/06/04 06:02:16;;;;;;;5.10;3.37;;;;;;;;;;5094030;28;20458;-77
2023/06/04 06:04:43;;;;;;;4.63;3.57;;;;;;;;;;5093656;28;20446;-74
2023/06/04 06:07:10;;;;;;;7.23;4.43;;;;;;;;;;5093688;28;20542;-74
2023/06/04 06:09:38;;;;;;;6.27;3.40;;;;;;;;;;5093518;28;20473;-74
2023/06/04 06:12:06;;;;;;;4.80;3.27;;;;;;;;;;5093512;28;20457;-75
2023/06/04 06:14:33;;;;;;;4.60;3.10;;;;;;;;;;5093648;28;20479;-74
2023/06/04 06:17:02;;;;;;;4.67;3.67;;;;;;;;;;5093739;28;20793;-75
2023/06/04 06:19:30;;;;;;;4.00;2.90;;;;;;;;;;5093143;28;20479;-74
2023/06/04 06:21:58;;;;;;;5.63;3.23;;;;;;;;;;5093544;28;20451;-74
2023/06/04 06:24:25;;;;;;;4.20;3.10;;;;;;;;;;5093485;28;20454;-75
2023/06/04 06:26:54;;;;;;;5.70;2.60;;;;;;;;;;5093427;28;20443;-74
2023/06/04 06:29:21;;;;;;;4.23;2.60;;;;;;;;;;5092853;28;20478;-75
2023/06/04 06:31:48;;;;;;;3.93;2.90;;;;;;;;;;5093393;28;20975;-74
2023/06/04 06:34:15;;;;;;;8.33;2.93;;;;;;;;;;5093176;28;20453;-74
2023/06/04 06:36:44;;;;;;;3.60;2.73;;;;;;;;;;5093254;28;20470;-75
2023/06/04 06:39:11;;;;;;;5.17;3.00;;;;;;;;;;5092693;28;20922;-75
2023/06/04 06:41:39;;;;;;;3.87;2.70;;;;;;;;;;5093117;28;20512;-75
2023/06/04 06:44:07;;;;;;;4.20;3.33;;;;;;;;;;5092935;28;20455;-75
2023/06/04 06:46:34;;;;;;;3.90;3.00;;;;;;;;;;5093030;28;20457;-75
2023/06/04 06:49:02;;;;;;;2.90;2.30;;;;;;;;;;5092210;28;20462;-75
2023/06/04 06:51:29;;;;;;;3.77;3.00;;;;;;;;;;5092721;28;20463;-75
2023/06/04 06:53:56;;;;;;;3.40;2.47;;;;;;;;;;5092993;28;20478;-75
2023/06/04 06:56:23;;;;;;;4.30;2.60;;;;;;;;;;5092164;28;20491;-75
2023/06/04 06:58:51;;;;;;;2.90;2.60;;;;;;;;;;5092534;28;20495;-75
2023/06/04 07:01:19;;;;;;;3.47;2.53;;;;;;;;;;5092653;28;20463;-75
2023/06/04 07:03:46;;;;;;;3.40;2.67;;;;;;;;;;5092705;28;20463;-75
2023/06/04 07:06:13;;;;;;;4.13;2.90;;;;;;;;;;5092737;28;20461;-75
2023/06/04 07:08:42;;;;;;;3.30;2.37;;;;;;;;;;5092488;28;20442;-75
2023/06/04 07:11:11;;;;;;;3.60;3.20;;;;;;;;;;5092893;28;20497;-75
2023/06/04 07:13:38;;;;;;;4.57;2.80;;;;;;;;;;5092559;28;20451;-75
2023/06/04 07:16:06;;;;;;;5.10;3.13;;;;;;;;;;5092516;28;20458;-75
2023/06/04 07:18:34;;;;;;;3.40;3.10;;;;;;;;;;5092197;28;20487;-75
2023/06/04 07:21:01;;;;;;;5.43;3.20;;;;;;;;;;5092607;28;20451;-75
2023/06/04 07:23:29;;;;;;;5.20;2.80;;;;;;;;;;5092735;28;20881;-75
2023/06/04 07:25:56;;;;;;;5.27;3.00;;;;;;;;;;5092396;28;20454;-75
2023/06/04 07:28:23;;;;;;;10.47;2.77;;;;;;;;;;5092410;28;20461;-75
2023/06/04 07:30:50;;;;;;;4.63;2.63;;;;;;;;;;5092281;28;20479;-75
2023/06/04 07:33:17;;;;;;;9.00;3.00;;;;;;;;;;5092299;28;20834;-75
2023/06/04 07:35:45;;;;;;;6.00;2.57;;;;;;;;;;5092410;28;20462;-75
2023/06/04 07:38:13;;;;;;;3.10;2.43;;;;;;;;;;5092210;28;20490;-75
2023/06/04 07:40:40;;;;;;;5.13;3.10;;;;;;;;;;5092383;28;20552;-75
2023/06/04 07:43:07;;;;;;;3.67;3.37;;;;;;;;;;5092207;28;20453;-75
2023/06/04 07:45:34;;;;;;;3.17;2.60;;;;;;;;;;5092339;28;20458;-75
2023/06/04 07:48:01;;;;;;;4.73;2.80;;;;;;;;;;5091989;28;20453;-75
2023/06/04 07:50:29;;;;;;;8.70;3.00;;;;;;;;;;5092112;28;20470;-75
2023/06/04 07:52:57;;;;;;;4.40;2.80;;;;;;;;;;5092252;28;20455;-75
2023/06/04 07:55:24;;;;;;;2.97;2.47;;;;;;;;;;5092617;28;20800;-75
2023/06/04 07:57:51;;;;;;;5.67;3.30;;;;;;;;;;5092002;28;20497;-75
2023/06/04 08:00:18;;;;;;;4.43;2.63;;;;;;;;;;5092183;28;20478;-75
2023/06/04 08:02:45;;;;;;;4.80;3.30;;;;;;;;;;5092217;28;20450;-75
2023/06/04 08:05:14;;;;;;;7.23;3.10;;;;;;;;;;5091992;28;20450;-75
2023/06/04 08:07:41;;;;;;;6.20;3.13;;;;;;;;;;5092693;28;20545;-75
2023/06/04 08:10:10;;;;;;;5.23;3.03;;;;;;;;;;5095597;28;20485;-75
2023/06/04 08:12:37;;;;;;;7.07;2.90;;;;;;;;;;5096033;28;20462;-76
2023/06/04 08:15:05;;;;;;;4.60;2.97;;;;;;;;;;5096011;28;20954;-76
2023/06/04 08:17:32;;;;;;;3.93;3.30;;;;;;;;;;5095880;28;20457;-75
2023/06/04 08:19:59;;;;;;;5.97;3.13;;;;;;;;;;5095720;28;20493;-75
2023/06/04 08:22:29;;;;;;;5.33;3.97;;;;;;;;;;5095658;28;20442;-75
2023/06/04 08:24:56;;;;;;;3.83;2.93;;;;;;;;;;5095644;28;20450;-76
2023/06/04 08:27:24;;;;;;;4.50;2.87;;;;;;;;;;5095797;28;20527;-76
2023/06/04 08:29:52;;;;;;;13.77;3.60;;;;;;;;;;5095558;28;20462;-75
2023/06/04 08:32:19;;;;;;;5.17;3.00;;;;;;;;;;5095407;28;20450;-75
2023/06/04 08:34:46;;;;;;;3.40;2.60;;;;;;;;;;5095629;28;20454;-75
2023/06/04 08:37:13;;;;;;;3.93;3.10;;;;;;;;;;5095479;28;20439;-75
2023/06/04 08:39:40;;;;;;;5.13;3.43;;;;;;;;;;5095230;28;20490;-75
2023/06/04 08:42:08;;;;;;;3.50;3.20;;;;;;;;;;5095390;28;20930;-75
2023/06/04 08:44:36;;;;;;;7.10;3.33;;;;;;;;;;5095320;28;20533;-75
2023/06/04 08:47:05;;;;;;;4.30;3.53;;;;;;;;;;5095201;28;20447;-78
2023/06/04 08:49:35;;;;;;;5.07;3.27;;;;;;;;;;5095139;28;20993;-75
2023/06/04 08:52:02;;;;;;;4.77;3.37;;;;;;;;;;5095184;28;20474;-76
2023/06/04 08:54:30;;;;;;;7.00;3.33;;;;;;;;;;5094952;28;20462;-75
2023/06/04 08:56:58;;;;;;;5.70;3.20;;;;;;;;;;5095246;28;21004;-75
2023/06/04 08:59:25;;;;;;;5.10;3.20;;;;;;;;;;5094665;28;20510;-75
2023/06/04 09:01:55;;;;;;;14.10;3.53;;;;;;;;;;5095251;28;20454;-75
2023/06/04 09:04:22;;;;;;;6.60;3.80;;;;;;;;;;5094891;28;20501;-75
2023/06/04 09:06:49;;;;;;;6.20;3.20;;;;;;;;;;5094905;28;20935;-75
2023/06/04 09:09:17;;;;;;;7.03;3.47;;;;;;;;;;5094689;28;20983;-74
2023/06/04 09:11:47;;;;;;;3.70;3.30;;;;;;;;;;5094770;28;20458;-75
2023/06/04 09:14:17;;;;;;;7.53;3.87;;;;;;;;;;5094940;28;20562;-75
2023/06/04 09:16:44;;;;;;;5.93;3.57;;;;;;;;;;5094866;28;20935;-75
2023/06/04 09:19:13;;;;;;;6.13;3.67;;;;;;;;;;5093744;28;20883;-75
2023/06/04 09:21:54;;;;;;;7.10;3.23;;;;;;;;;;5094408;28;20450;-75
2023/06/04 09:24:21;;;;;;;5.80;3.20;;;;;;;;;;5094598;28;20482;-75
2023/06/04 09:26:49;;;;;;;5.27;3.33;;;;;;;;;;5094477;28;20913;-75
2023/06/04 09:29:16;;;;;;;4.13;3.30;;;;;;;;;;5094286;28;20475;-75
2023/06/04 09:31:46;;;;;;;8.30;3.80;;;;;;;;;;5094684;28;20454;-76
2023/06/04 09:34:15;;;;;;;5.57;3.00;;;;;;;;;;5094504;28;20454;-76
2023/06/04 09:36:42;;;;;;;3.40;3.10;;;;;;;;;;5094380;28;20454;-75
2023/06/04 09:39:19;;;;;;;5.93;3.70;;;;;;;;;;5093965;28;21014;-75
2023/06/04 09:41:46;;;;;;;10.33;3.27;;;;;;;;;;5094268;28;20442;-75
2023/06/04 09:44:13;;;;;;;4.17;3.47;;;;;;;;;;5094167;28;20810;-76
2023/06/04 09:46:40;;;;;;;9.90;3.87;;;;;;;;;;5094279;28;20455;-75
2023/06/04 09:49:07;;;;;;;6.43;2.80;;;;;;;;;;5093258;28;20474;-76
2023/06/04 09:51:36;;;;;;;4.43;3.47;;;;;;;;;;5094166;28;20462;-76
2023/06/04 09:54:03;;;;;;;9.60;3.67;;;;;;;;;;5093981;28;20454;-76
2023/06/04 09:56:31;;;;;;;4.13;2.87;;;;;;;;;;5093938;28;20463;-75
2023/06/04 09:59:00;;;;;;;6.33;3.70;;;;;;;;;;5093527;28;20521;-76
2023/06/04 10:01:28;;;;;;;3.57;3.07;;;;;;;;;;5093815;28;20494;-75
2023/06/04 10:03:56;;;;;;;9.63;3.87;;;;;;;;;;5093931;28;20928;-75
2023/06/04 10:06:23;;;;;;;4.30;3.27;;;;;;;;;;5093707;28;20541;-75
2023/06/04 10:08:52;;;;;;;5.40;3.90;;;;;;;;;;5093782;28;20979;-76
2023/06/04 10:11:22;;;;;;;4.33;3.57;;;;;;;;;;5093664;28;20817;-75
2023/06/04 10:13:50;;;;;;;4.10;3.43;;;;;;;;;;5093475;28;20455;-76
2023/06/04 10:16:18;;;;;;;4.83;3.37;;;;;;;;;;5093444;28;20871;-75
2023/06/04 10:18:46;;;;;;;4.63;3.10;;;;;;;;;;5093377;28;20865;-76
2023/06/04 10:21:15;;;;;;;7.17;3.83;;;;;;;;;;5093632;28;20469;-76
2023/06/04 10:23:44;;;;;;;8.47;3.63;;;;;;;;;;5093486;28;20493;-75
2023/06/04 10:26:14;;;;;;;3.57;3.03;;;;;;;;;;5093246;28;20822;-76
2023/06/04 10:28:42;;;;;;;4.43;3.20;;;;;;;;;;5093223;28;20443;-75
2023/06/04 10:31:10;;;;;;;4.47;3.03;;;;;;;;;;5093212;28;20482;-75
2023/06/04 10:33:37;;;;;;;5.20;3.33;;;;;;;;;;5093171;28;20447;-75
2023/06/04 10:36:17;;;;;;;4.87;3.20;;;;;;;;;;5093040;28;20453;-75
2023/06/04 10:38:46;;;;;;;7.30;3.33;;;;;;;;;;5092779;28;20510;-76
2023/06/04 10:41:16;;;;;;;6.30;2.90;;;;;;;;;;5093430;28;20504;-76
2023/06/04 10:43:44;;;;;;;5.50;3.40;;;;;;;;;;5093276;28;20900;-75
2023/06/04 10:46:14;;;;;;;3.27;2.97;;;;;;;;;;5093042;28;20446;-76
2023/06/04 10:48:51;;;;;;;5.00;2.80;;;;;;;;;;5092776;28;20481;-75
2023/06/04 10:51:30;;;;;;;3.77;3.37;;;;;;;;;;5093027;28;20817;-75
2023/06/04 10:53:57;;;;;;;5.07;3.07;;;;;;;;;;5093012;28;20875;-75
2023/06/04 10:56:29;;;;;;;4.83;3.03;;;;;;;;;;5092707;28;20467;-75
2023/06/04 10:58:57;;;;;;;4.93;3.50;;;;;;;;;;5092423;28;20495;-76
2023/06/04 11:01:26;;;;;;;5.33;3.10;;;;;;;;;;5092690;28;20549;-75
2023/06/04 11:03:53;;;;;;;4.30;3.10;;;;;;;;;;5092978;28;20974;-76
2023/06/04 11:06:21;;;;;;;4.80;3.33;;;;;;;;;;5092640;28;20453;-76
2023/06/04 11:08:48;;;;;;;2.87;2.60;;;;;;;;;;5092412;28;20512;-75
2023/06/04 11:11:15;;;;;;;7.70;3.77;;;;;;;;;;5092619;28;20811;-76
2023/06/04 11:13:44;;;;;;;4.37;3.17;;;;;;;;;;5092749;28;20450;-75
2023/06/04 11:16:18;;;;;;;3.50;2.80;;;;;;;;;;5092492;28;20477;-76
2023/06/04 11:18:45;;;;;;;5.67;3.73;;;;;;;;;;5092334;28;20446;-76
2023/06/04 11:21:14;;;;;;;3.27;2.97;;;;;;;;;;5092612;28;20508;-75
2023/06/04 11:23:43;;;;;;;3.63;3.30;;;;;;;;;;5092567;28;20465;-75
2023/06/04 11:26:10;;;;;;;3.17;2.87;;;;;;;;;;5092445;28;20538;-76
2023/06/04 11:28:37;;;;;;;3.63;3.23;;;;;;;;;;5092007;28;20454;-76
2023/06/04 11:31:06;;;;;;;5.63;3.80;;;;;;;;;;5092688;28;20457;-76
2023/06/04 11:33:43;;;;;;;5.33;3.13;;;;;;;;;;5092516;28;20931;-76
2023/06/04 11:36:10;;;;;;;3.50;3.20;;;;;;;;;;5092588;28;20527;-76
2023/06/04 11:38:37;;;;;;;4.80;3.37;;;;;;;;;;5092319;28;20454;-76
2023/06/04 11:41:05;;;;;;;5.90;3.50;;;;;;;;;;5092561;28;20839;-76
2023/06/04 11:43:39;;;;;;;3.40;3.10;;;;;;;;;;5094309;28;20450;-76
2023/06/04 11:46:08;;;;;;;3.90;2.83;;;;;;;;;;5096341;28;20874;-76
2023/06/04 11:48:35;;;;;;;4.73;3.30;;;;;;;;;;5096245;28;20465;-76
2023/06/04 11:51:06;;;;;;;3.50;3.20;;;;;;;;;;5096329;28;20566;-76
2023/06/04 11:53:33;;;;;;;5.60;3.70;;;;;;;;;;5096415;28;20883;-76
2023/06/04 11:56:01;;;;;;;4.20;3.50;;;;;;;;;;5096128;28;20461;-76
2023/06/04 11:58:28;;;;;;;5.50;2.90;;;;;;;;;;5096214;28;20446;-76
2023/06/04 12:00:56;;;;;;;6.80;3.40;;;;;;;;;;5096253;28;20486;-75
2023/06/04 12:03:33;;;;;;;3.90;3.53;;;;;;;;;;5096280;28;20454;-76
2023/06/04 12:06:00;;;;;;;3.20;2.90;;;;;;;;;;5096294;28;20446;-76
2023/06/04 12:08:27;;;;;;;4.00;3.20;;;;;;;;;;5095766;28;20465;-76
2023/06/04 12:10:54;;;;;;;4.50;3.60;;;;;;;;;;5096327;28;20939;-75
2023/06/04 12:13:21;;;;;;;6.37;3.40;;;;;;;;;;5095582;28;20831;-75
2023/06/04 12:15:52;;;;;;;5.60;3.80;;;;;;;;;;5095902;28;20447;-76
2023/06/04 12:18:24;;;;;;;3.63;3.07;;;;;;;;;;5095721;28;20458;-76
2023/06/04 12:20:54;;;;;;;6.63;3.80;;;;;;;;;;5095749;28;20489;-76
2023/06/04 12:23:21;;;;;;;4.33;3.57;;;;;;;;;;5095632;28;20458;-75
2023/06/04 12:25:51;;;;;;;3.63;3.33;;;;;;;;;;5096054;28;20450;-75
2023/06/04 12:28:19;;;;;;;12.23;3.90;;;;;;;;;;5095423;28;20542;-76
2023/06/04 12:30:46;;;;;;;6.13;4.27;;;;;;;;;;5095546;28;20477;-75
2023/06/04 12:33:13;;;;;;;4.43;3.20;;;;;;;;;;5095589;28;20457;-75
2023/06/04 12:35:40;;;;;;;7.00;3.57;;;;;;;;;;5095486;28;20461;-76
2023/06/04 12:38:10;;;;;;;4.33;3.40;;;;;;;;;;5095417;28;20450;-76
2023/06/04 12:40:37;;;;;;;4.10;3.70;;;;;;;;;;5095290;28;20636;-75
2023/06/04 12:43:04;;;;;;;4.90;3.87;;;;;;;;;;5095312;28;20454;-75
2023/06/04 12:45:31;;;;;;;4.30;3.90;;;;;;;;;;5095333;28;20450;-76
2023/06/04 12:47:58;;;;;;;6.77;3.17;;;;;;;;;;5094997;28;20480;-75
2023/06/04 12:50:25;;;;;;;3.67;3.33;;;;;;;;;;5095030;28;20474;-75
2023/06/04 12:52:53;;;;;;;6.30;3.40;;;;;;;;;;5095166;28;20931;-75
2023/06/04 12:55:21;;;;;;;3.80;3.30;;;;;;;;;;5094038;28;20462;-75
2023/06/04 12:57:48;;;;;;;5.40;3.63;;;;;;;;;;5095023;28;20967;-74
2023/06/04 13:00:16;;;;;;;3.60;3.30;;;;;;;;;;5094686;28;20854;-75
2023/06/04 13:02:43;;;;;;;4.90;3.20;;;;;;;;;;5095117;28;20491;-75
2023/06/04 13:05:10;;;;;;;7.37;3.60;;;;;;;;;;5095052;28;20451;-75
2023/06/04 13:07:37;;;;;;;5.67;3.70;;;;;;;;;;5094943;28;20454;-75
2023/06/04 13:10:05;;;;;;;5.33;3.77;;;;;;;;;;5094515;28;20475;-75
2023/06/04 13:12:34;;;;;;;6.07;3.17;;;;;;;;;;5094952;28;20490;-75
2023/06/04 13:15:02;;;;;;;3.87;3.47;;;;;;;;;;5094690;28;20473;-75
2023/06/04 13:17:29;;;;;;;9.13;4.60;;;;;;;;;;5094853;28;20511;-75
2023/06/04 13:19:56;;;;;;;6.53;3.80;;;;;;;;;;5094306;28;20494;-75
2023/06/04 13:22:24;;;;;;;8.27;4.03;;;;;;;;;;5094661;28;20458;-75
2023/06/04 13:24:51;;;;;;;3.67;3.10;;;;;;;;;;5094594;28;20512;-75
2023/06/04 13:27:18;;;;;;;6.57;3.43;;;;;;;;;;5094433;28;20538;-75
2023/06/04 13:29:46;;;;;;;4.53;2.70;;;;;;;;;;5094319;28;20474;-75
2023/06/04 13:32:13;;;;;;;4.63;3.70;;;;;;;;;;5094479;28;20446;-76
2023/06/04 13:34:40;;;;;;;4.27;3.83;;;;;;;;;;5094951;28;20438;-74
2023/06/04 13:37:10;;;;;;;9.33;3.73;;;;;;;;;;5094752;28;20443;-74
2023/06/04 13:39:37;;;;;;;4.93;3.60;;;;;;;;;;5094395;28;20507;-74
2023/06/04 13:42:05;;;;;;;3.40;2.97;;;;;;;;;;5094213;28;20446;-74
2023/06/04 13:44:32;;;;;;;5.60;3.53;;;;;;;;;;5094654;28;20446;-73
2023/06/04 13:47:01;;;;;;;5.00;3.80;;;;;;;;;;5094248;28;20855;-74
2023/06/04 13:49:28;;;;;;;6.33;4.50;;;;;;;;;;5094483;28;20480;-74
2023/06/04 13:51:55;;;;;;;4.43;4.00;;;;;;;;;;5094480;28;20446;-74
2023/06/04 13:54:22;;;;;;;5.77;3.40;;;;;;;;;;5094299;28;20451;-74
2023/06/04 13:56:50;;;;;;;4.80;3.40;;;;;;;;;;5094062;28;20462;-74
2023/06/04 13:59:17;;;;;;;5.27;3.30;;;;;;;;;;5094075;28;20471;-74
2023/06/04 14:01:44;;;;;;;3.87;3.43;;;;;;;;;;5094370;28;20486;-74
2023/06/04 14:04:12;;;;;;;5.37;3.50;;;;;;;;;;5093965;28;20454;-74
2023/06/04 14:06:39;;;;;;;4.27;3.87;;;;;;;;;;5093892;28;20455;-74
2023/06/04 14:09:09;;;;;;;6.17;3.30;;;;;;;;;;5094079;28;20503;-74
2023/06/04 14:11:36;;;;;;;5.00;3.40;;;;;;;;;;5094453;28;20450;-74
2023/06/04 14:14:03;;;;;;;4.73;3.53;;;;;;;;;;5094102;28;20457;-74
2023/06/04 14:16:30;;;;;;;6.47;4.80;;;;;;;;;;5093671;28;20459;-74
2023/06/04 14:18:57;;;;;;;5.30;3.63;;;;;;;;;;5093840;28;20470;-75
2023/06/04 14:21:25;;;;;;;7.07;3.47;;;;;;;;;;5093706;28;20503;-74
2023/06/04 14:23:53;;;;;;;6.30;3.70;;;;;;;;;;5093855;28;20888;-74
2023/06/04 14:26:20;;;;;;;6.53;3.30;;;;;;;;;;5093786;28;20455;-74
2023/06/04 14:28:47;;;;;;;5.63;3.57;;;;;;;;;;5093450;28;20451;-74
2023/06/04 14:31:14;;;;;;;4.77;4.37;;;;;;;;;;5093367;28;20459;-74
2023/06/04 14:33:41;;;;;;;3.37;3.03;;;;;;;;;;5093741;28;20454;-74
2023/06/04 14:36:08;;;;;;;4.60;3.63;;;;;;;;;;5093937;28;20812;-74
2023/06/04 14:38:37;;;;;;;6.10;3.60;;;;;;;;;;5094264;28;20446;-74
2023/06/04 14:41:05;;;;;;;5.27;3.70;;;;;;;;;;5093503;28;20514;-74
2023/06/04 14:43:32;;;;;;;6.83;4.07;;;;;;;;;;5093430;28;20458;-74
2023/06/04 14:45:59;;;;;;;5.43;3.83;;;;;;;;;;5093445;28;20454;-74